createdAt,value
2022-09-15T00:00:23.286Z,17.2
2022-09-15T00:01:25.145Z,17.2
2022-09-15T00:02:26.561Z,17.2
2022-09-15T00:03:28.155Z,17.2
2022-09-15T00:04:29.584Z,17.2
2022-09-15T00:05:31.185Z,17.2
2022-09-15T00:06:32.087Z,17.2
2022-09-15T00:07:33.065Z,17.2
2022-09-15T00:08:34.030Z,17.2
2022-09-15T00:09:35.078Z,17.2
2022-09-15T00:10:36.085Z,17.2
2022-09-15T00:11:37.074Z,17.1
2022-09-15T00:12:38.226Z,17
2022-09-15T00:13:40.066Z,17
2022-09-15T00:14:41.437Z,17
2022-09-15T00:15:43.186Z,16.9
2022-09-15T00:16:44.358Z,16.8
2022-09-15T00:17:46.087Z,16.6
2022-09-15T00:18:47.071Z,16.5
2022-09-15T00:19:48.127Z,16.4
2022-09-15T00:20:49.133Z,16.4
2022-09-15T00:21:50.085Z,16.3
2022-09-15T00:22:51.062Z,16.3
2022-09-15T00:23:52.105Z,16.2
2022-09-15T00:24:53.129Z,16.1
2022-09-15T00:25:54.325Z,16.1
2022-09-15T00:26:56.504Z,16
2022-09-15T00:27:58.215Z,15.9
2022-09-15T00:29:00.185Z,15.8
2022-09-15T00:30:01.427Z,15.7
2022-09-15T00:31:03.212Z,15.7
2022-09-15T00:32:04.214Z,15.7
2022-09-15T00:33:06.346Z,15.7
2022-09-15T00:34:08.105Z,15.7
2022-09-15T00:35:09.265Z,15.7
2022-09-15T00:36:11.127Z,15.8
2022-09-15T00:37:12.106Z,15.8
2022-09-15T00:38:13.086Z,15.7
2022-09-15T00:39:14.026Z,15.7
2022-09-15T00:40:15.355Z,15.7
2022-09-15T00:41:17.171Z,15.6
2022-09-15T00:42:18.108Z,15.6
2022-09-15T00:43:19.208Z,15.6
2022-09-15T00:44:21.107Z,15.6
2022-09-15T00:45:22.346Z,15.7
2022-09-15T00:46:24.166Z,15.8
2022-09-15T00:47:25.430Z,15.9
2022-09-15T00:48:27.086Z,16
2022-09-15T00:49:28.086Z,16.1
2022-09-15T00:50:29.145Z,16.1
2022-09-15T00:51:30.105Z,16.1
2022-09-15T00:52:31.066Z,16
2022-09-15T00:53:32.085Z,16
2022-09-15T00:54:33.085Z,16
2022-09-15T00:55:34.151Z,16
2022-09-15T00:56:35.106Z,16
2022-09-15T00:57:36.125Z,15.9
2022-09-15T00:58:37.185Z,15.8
2022-09-15T00:59:39.365Z,15.8
2022-09-15T01:04:01.811Z,15.4
2022-09-15T01:05:03.198Z,15.3
2022-09-15T01:06:04.172Z,15.4
2022-09-15T01:07:05.110Z,15.4
2022-09-15T01:08:06.110Z,15.5
2022-09-15T01:09:07.520Z,15.5
2022-09-15T01:10:09.111Z,15.6
2022-09-15T01:11:10.204Z,15.7
2022-09-15T01:12:11.102Z,15.7
2022-09-15T01:13:12.131Z,15.7
2022-09-15T01:14:13.149Z,15.8
2022-09-15T01:15:14.151Z,15.9
2022-09-15T01:17:47.161Z,16.1
2022-09-15T01:18:48.090Z,16.1
2022-09-15T01:19:49.159Z,16.1
2022-09-15T01:20:50.113Z,16.2
2022-09-15T01:21:52.876Z,16.2
2022-09-15T01:22:52.112Z,16.1
2022-09-15T01:23:53.152Z,16.1
2022-09-15T01:24:54.132Z,16.1
2022-09-15T01:25:55.174Z,16.1
2022-09-15T01:26:56.178Z,16.1
2022-09-15T01:27:57.093Z,16.1
2022-09-15T01:28:58.170Z,16
2022-09-15T01:29:59.095Z,16
2022-09-15T01:31:00.159Z,16
2022-09-15T01:32:01.280Z,16
2022-09-15T01:33:02.200Z,16.1
2022-09-15T01:34:03.134Z,16.1
2022-09-15T01:35:04.173Z,16.2
2022-09-15T01:36:05.150Z,16.2
2022-09-15T01:37:07.135Z,16.2
2022-09-15T01:38:08.111Z,16.2
2022-09-15T01:39:09.070Z,16.1
2022-09-15T01:40:10.267Z,16.1
2022-09-15T01:41:11.190Z,16.2
2022-09-15T01:42:12.070Z,16.2
2022-09-15T01:43:13.151Z,16.3
2022-09-15T01:44:14.099Z,16.3
2022-09-15T01:45:15.181Z,16.2
2022-09-15T01:46:16.251Z,16.2
2022-09-15T01:47:17.190Z,16.2
2022-09-15T01:48:19.172Z,16.1
2022-09-15T01:49:20.128Z,16.1
2022-09-15T01:50:22.150Z,16.1
2022-09-15T01:51:24.150Z,16
2022-09-15T01:52:25.151Z,15.9
2022-09-15T01:53:26.130Z,15.9
2022-09-15T01:54:27.075Z,15.9
2022-09-15T01:55:28.558Z,15.8
2022-09-15T01:56:30.150Z,15.8
2022-09-15T01:57:31.135Z,15.8
2022-09-15T01:58:32.131Z,15.7
2022-09-15T01:59:34.190Z,15.8
2022-09-15T02:00:36.092Z,15.8
2022-09-15T02:01:37.224Z,15.8
2022-09-15T02:02:38.261Z,15.8
2022-09-15T02:03:39.131Z,15.8
2022-09-15T02:04:40.180Z,15.8
2022-09-15T02:05:41.551Z,15.9
2022-09-15T02:06:43.310Z,15.9
2022-09-15T02:07:45.770Z,15.9
2022-09-15T02:08:47.479Z,16
2022-09-15T02:09:49.350Z,15.9
2022-09-15T02:10:51.293Z,15.9
2022-09-15T02:11:53.130Z,15.9
2022-09-15T02:12:54.575Z,15.9
2022-09-15T02:13:56.102Z,15.9
2022-09-15T02:14:57.131Z,15.9
2022-09-15T02:15:59.147Z,15.8
2022-09-15T02:17:00.180Z,15.9
2022-09-15T02:18:01.327Z,15.9
2022-09-15T02:19:03.150Z,15.8
2022-09-15T02:20:04.150Z,15.8
2022-09-15T02:21:05.251Z,15.8
2022-09-15T02:22:06.171Z,15.8
2022-09-15T02:23:07.230Z,15.8
2022-09-15T02:24:08.130Z,15.8
2022-09-15T02:25:09.171Z,15.9
2022-09-15T02:26:10.190Z,15.9
2022-09-15T02:27:11.173Z,15.9
2022-09-15T02:28:12.238Z,15.9
2022-09-15T02:29:14.191Z,15.9
2022-09-15T02:30:16.258Z,15.9
2022-09-15T02:31:17.188Z,15.9
2022-09-15T02:32:18.110Z,15.8
2022-09-15T02:33:19.238Z,15.8
2022-09-15T02:34:20.137Z,15.8
2022-09-15T02:35:21.371Z,15.7
2022-09-15T02:36:23.350Z,15.7
2022-09-15T02:37:25.291Z,15.6
2022-09-15T02:38:26.319Z,15.6
2022-09-15T02:39:28.211Z,15.7
2022-09-15T02:40:29.297Z,15.7
2022-09-15T02:41:30.178Z,15.6
2022-09-15T02:42:31.254Z,15.5
2022-09-15T02:43:32.262Z,15.5
2022-09-15T02:44:34.222Z,15.4
2022-09-15T02:45:35.313Z,15.3
2022-09-15T02:46:37.230Z,15.1
2022-09-15T02:47:38.399Z,15
2022-09-15T02:48:40.183Z,15
2022-09-15T02:49:42.310Z,14.9
2022-09-15T02:50:44.133Z,15
2022-09-15T02:51:46.370Z,15
2022-09-15T02:52:48.190Z,15
2022-09-15T02:53:49.244Z,15
2022-09-15T02:54:50.238Z,15
2022-09-15T02:55:51.631Z,15.1
2022-09-15T02:56:53.191Z,15
2022-09-15T02:57:54.530Z,15
2022-09-15T02:58:58.101Z,15.1
2022-09-15T02:59:59.391Z,15
2022-09-15T03:01:01.463Z,15
2022-09-15T03:02:03.316Z,14.9
2022-09-15T03:03:05.358Z,14.8
2022-09-15T03:04:07.231Z,14.8
2022-09-15T03:05:09.350Z,14.7
2022-09-15T03:06:10.630Z,14.7
2022-09-15T03:07:12.552Z,14.7
2022-09-15T03:08:14.131Z,14.7
2022-09-15T03:09:15.151Z,14.7
2022-09-15T03:10:16.130Z,14.6
2022-09-15T03:11:17.130Z,14.5
2022-09-15T03:12:18.209Z,14.4
2022-09-15T03:13:19.146Z,14.5
2022-09-15T03:14:20.602Z,14.5
2022-09-15T03:15:22.193Z,14.6
2022-09-15T03:16:24.451Z,14.7
2022-09-15T03:17:26.353Z,14.8
2022-09-15T03:18:28.370Z,14.7
2022-09-15T03:19:30.478Z,14.7
2022-09-15T03:20:32.819Z,14.7
2022-09-15T03:21:34.171Z,14.7
2022-09-15T03:22:35.281Z,14.7
2022-09-15T03:23:36.312Z,14.8
2022-09-15T03:24:38.194Z,14.8
2022-09-15T03:25:39.210Z,14.8
2022-09-15T03:26:40.272Z,14.8
2022-09-15T03:27:41.290Z,14.8
2022-09-15T03:28:42.410Z,14.8
2022-09-15T03:29:44.275Z,14.8
2022-09-15T03:30:45.263Z,14.8
2022-09-15T03:31:46.575Z,14.8
2022-09-15T03:32:48.372Z,14.7
2022-09-15T03:33:50.348Z,14.7
2022-09-15T03:34:56.424Z,14.7
2022-09-15T03:35:54.175Z,14.8
2022-09-15T03:36:55.311Z,14.7
2022-09-15T03:37:57.170Z,14.7
2022-09-15T03:38:58.250Z,14.7
2022-09-15T03:39:59.716Z,14.7
2022-09-15T03:41:01.933Z,14.7
2022-09-15T03:42:03.290Z,14.7
2022-09-15T03:43:04.510Z,14.8
2022-09-15T03:44:06.198Z,14.8
2022-09-15T03:45:07.376Z,14.8
2022-09-15T03:46:09.877Z,14.8
2022-09-15T03:47:11.451Z,14.8
2022-09-15T03:48:13.458Z,14.8
2022-09-15T03:49:15.424Z,14.8
2022-09-15T03:50:17.310Z,14.8
2022-09-15T03:51:18.212Z,14.9
2022-09-15T03:52:19.318Z,14.9
2022-09-15T03:53:20.278Z,14.8
2022-09-15T03:54:21.371Z,14.8
2022-09-15T03:55:23.237Z,14.8
2022-09-15T03:56:25.351Z,14.8
2022-09-15T03:57:27.638Z,14.8
2022-09-15T03:58:30.859Z,14.8
2022-09-15T03:59:30.395Z,14.8
2022-09-15T04:00:32.801Z,14.8
2022-09-15T04:01:34.463Z,14.8
2022-09-15T04:02:36.290Z,14.9
2022-09-15T04:03:42.178Z,14.9
2022-09-15T04:04:38.312Z,14.9
2022-09-15T04:05:39.766Z,14.9
2022-09-15T04:06:41.350Z,14.9
2022-09-15T04:07:43.439Z,14.9
2022-09-15T04:08:45.530Z,14.9
2022-09-15T04:09:47.551Z,14.9
2022-09-15T04:10:49.971Z,15
2022-09-15T04:11:51.535Z,15
2022-09-15T04:12:53.291Z,15
2022-09-15T04:13:54.399Z,15
2022-09-15T04:14:56.370Z,15
2022-09-15T04:15:58.473Z,14.9
2022-09-15T04:17:00.290Z,15
2022-09-15T04:18:01.490Z,15
2022-09-15T04:19:03.700Z,15
2022-09-15T04:20:05.631Z,15
2022-09-15T04:21:07.579Z,15
2022-09-15T04:22:09.490Z,14.9
2022-09-15T04:23:11.334Z,14.9
2022-09-15T04:24:13.411Z,14.8
2022-09-15T04:25:15.365Z,14.9
2022-09-15T04:26:17.318Z,14.9
2022-09-15T04:27:18.470Z,14.9
2022-09-15T04:28:20.290Z,14.9
2022-09-15T04:29:21.771Z,14.8
2022-09-15T04:30:23.930Z,14.8
2022-09-15T04:31:25.552Z,14.8
2022-09-15T04:32:27.270Z,14.8
2022-09-15T04:33:28.252Z,14.8
2022-09-15T04:34:30.199Z,14.9
2022-09-15T04:35:31.600Z,14.8
2022-09-15T04:36:33.270Z,14.8
2022-09-15T04:37:34.491Z,14.9
2022-09-15T04:38:36.430Z,14.8
2022-09-15T04:39:38.271Z,14.9
2022-09-15T04:40:39.417Z,14.9
2022-09-15T04:41:41.370Z,14.9
2022-09-15T04:42:43.331Z,15
2022-09-15T04:43:44.404Z,15
2022-09-15T04:44:46.290Z,15
2022-09-15T04:45:47.551Z,15
2022-09-15T04:46:49.325Z,15
2022-09-15T04:47:51.319Z,14.9
2022-09-15T04:49:07.233Z,14.9
2022-09-15T04:50:08.491Z,14.9
2022-09-15T04:52:34.291Z,14.9
2022-09-15T04:53:36.271Z,14.9
2022-09-15T04:54:37.310Z,14.9
2022-09-15T04:55:39.472Z,14.8
2022-09-15T04:56:41.554Z,14.8
2022-09-15T04:57:43.310Z,14.9
2022-09-15T04:58:45.275Z,14.8
2022-09-15T05:00:02.610Z,14.7
2022-09-15T05:01:04.457Z,14.6
2022-09-15T05:02:06.446Z,14.6
2022-09-15T05:04:30.441Z,14.7
2022-09-15T05:05:47.350Z,14.7
2022-09-15T05:08:31.218Z,14.7
2022-09-15T05:09:47.310Z,14.7
2022-09-15T05:10:49.270Z,14.7
2022-09-15T05:13:18.452Z,14.6
2022-09-15T05:14:38.670Z,14.5
2022-09-15T05:15:40.339Z,14.5
2022-09-15T05:16:42.800Z,14.4
2022-09-15T05:17:44.275Z,14.3
2022-09-15T05:19:02.571Z,14.3
2022-09-15T05:20:04.451Z,14.2
2022-09-15T05:21:06.371Z,14.1
2022-09-15T05:22:24.450Z,14
2022-09-15T05:23:26.391Z,13.9
2022-09-15T05:24:43.111Z,13.9
2022-09-15T05:25:47.451Z,14
2022-09-15T05:27:02.439Z,13.9
2022-09-15T05:28:04.676Z,14
2022-09-15T05:29:06.631Z,14
2022-09-15T05:30:32.241Z,14.1
2022-09-15T05:31:25.444Z,14.2
2022-09-15T05:32:27.494Z,14.2
2022-09-15T05:33:42.287Z,14.2
2022-09-15T05:34:44.379Z,14.3
2022-09-15T05:35:46.510Z,14.3
2022-09-15T05:36:48.264Z,14.4
2022-09-15T05:37:51.430Z,14.4
2022-09-15T05:38:53.335Z,14.4
2022-09-15T05:41:27.370Z,14.3
2022-09-15T05:42:44.537Z,14.3
2022-09-15T05:45:51.431Z,14.2
2022-09-15T05:46:53.645Z,14.2
2022-09-15T05:47:55.290Z,14.2
2022-09-15T05:49:12.521Z,14.3
2022-09-15T05:50:14.333Z,14.3
2022-09-15T05:51:15.570Z,14.4
2022-09-15T05:52:17.391Z,14.5
2022-09-15T05:53:34.471Z,14.5
2022-09-15T05:54:36.971Z,14.6
2022-09-15T05:55:38.511Z,14.6
2022-09-15T05:56:40.319Z,14.6
2022-09-15T05:57:43.210Z,14.7
2022-09-15T05:58:45.451Z,14.7
2022-09-15T05:59:47.558Z,14.8
2022-09-15T06:01:08.399Z,14.8
2022-09-15T06:02:10.469Z,14.7
2022-09-15T06:03:12.377Z,14.7
2022-09-15T06:04:14.291Z,14.7
2022-09-15T06:05:15.411Z,14.8
2022-09-15T06:06:17.551Z,14.8
2022-09-15T06:07:19.466Z,14.9
2022-09-15T06:08:21.413Z,15
2022-09-15T06:09:23.430Z,15.2
2022-09-15T06:10:25.470Z,15.2
2022-09-15T06:11:27.421Z,15.2
2022-09-15T06:12:29.451Z,15.2
2022-09-15T06:13:31.791Z,15.3
2022-09-15T06:14:33.452Z,15.3
2022-09-15T06:15:35.422Z,15.4
2022-09-15T06:16:37.376Z,15.4
2022-09-15T06:17:38.615Z,15.3
2022-09-15T06:18:40.332Z,15.3
2022-09-15T06:19:41.511Z,15.4
2022-09-15T06:20:43.260Z,15.5
2022-09-15T06:21:45.249Z,15.5
2022-09-15T06:22:46.491Z,15.5
2022-09-15T06:23:50.766Z,15.5
2022-09-15T06:24:50.813Z,15.5
2022-09-15T06:25:53.579Z,15.5
2022-09-15T06:26:55.452Z,15.4
2022-09-15T06:27:57.271Z,15.5
2022-09-15T06:28:59.490Z,15.5
2022-09-15T06:30:01.662Z,15.5
2022-09-15T06:31:03.457Z,15.5
2022-09-15T06:32:05.416Z,15.5
2022-09-15T06:33:06.310Z,15.5
2022-09-15T06:34:09.512Z,15.4
2022-09-15T06:35:11.513Z,15.5
2022-09-15T06:36:13.424Z,15.5
2022-09-15T06:37:15.350Z,15.6
2022-09-15T06:38:17.633Z,15.7
2022-09-15T06:39:19.954Z,15.9
2022-09-15T06:40:21.499Z,15.9
2022-09-15T06:41:23.441Z,16
2022-09-15T06:42:25.518Z,16
2022-09-15T06:43:27.506Z,16
2022-09-15T06:44:29.571Z,15.9
2022-09-15T06:45:31.356Z,15.7
2022-09-15T06:46:32.355Z,15.6
2022-09-15T06:47:33.300Z,15.5
2022-09-15T06:48:34.292Z,15.4
2022-09-15T06:49:35.330Z,15.3
2022-09-15T06:50:36.313Z,15.3
2022-09-15T06:51:37.303Z,15.2
2022-09-15T06:52:39.351Z,15.2
2022-09-15T06:53:40.311Z,15.1
2022-09-15T06:54:41.398Z,15.2
2022-09-15T06:55:42.473Z,15.3
2022-09-15T06:56:44.277Z,15.5
2022-09-15T06:57:46.313Z,15.6
2022-09-15T06:58:48.316Z,15.6
2022-09-15T06:59:50.778Z,15.7
2022-09-15T07:00:52.351Z,15.8
2022-09-15T07:01:53.383Z,15.8
2022-09-15T07:02:54.352Z,15.8
2022-09-15T07:03:55.297Z,15.8
2022-09-15T07:04:57.350Z,15.9
2022-09-15T07:05:59.272Z,15.9
2022-09-15T07:07:01.500Z,15.9
2022-09-15T07:08:03.291Z,15.9
2022-09-15T07:09:04.207Z,16
2022-09-15T07:10:05.350Z,16.1
2022-09-15T07:11:06.278Z,16.2
2022-09-15T07:12:07.294Z,16.2
2022-09-15T07:13:09.291Z,16.3
2022-09-15T07:14:10.290Z,16.4
2022-09-15T07:15:12.472Z,16.5
2022-09-15T07:16:14.393Z,16.5
2022-09-15T07:17:15.592Z,16.5
2022-09-15T07:18:17.400Z,16.5
2022-09-15T07:19:18.294Z,16.5
2022-09-15T07:20:19.528Z,16.6
2022-09-15T07:21:21.336Z,16.6
2022-09-15T07:22:22.771Z,16.6
2022-09-15T07:23:24.299Z,16.6
2022-09-15T07:24:25.470Z,16.7
2022-09-15T07:25:27.350Z,16.7
2022-09-15T07:26:28.351Z,16.7
2022-09-15T07:27:29.373Z,16.7
2022-09-15T07:28:30.331Z,16.8
2022-09-15T07:29:33.827Z,16.8
2022-09-15T07:30:32.332Z,16.8
2022-09-15T07:31:33.405Z,16.8
2022-09-15T07:32:34.311Z,16.7
2022-09-15T07:33:36.330Z,16.5
2022-09-15T07:34:38.332Z,16.4
2022-09-15T07:35:40.317Z,16.5
2022-09-15T07:36:41.475Z,16.6
2022-09-15T07:37:43.315Z,16.7
2022-09-15T07:38:45.527Z,16.8
2022-09-15T07:39:48.020Z,16.8
2022-09-15T07:40:49.413Z,16.8
2022-09-15T07:41:51.658Z,16.8
2022-09-15T07:42:53.410Z,16.9
2022-09-15T07:43:55.435Z,16.8
2022-09-15T07:44:57.531Z,16.7
2022-09-15T07:45:59.596Z,16.8
2022-09-15T07:47:01.350Z,16.8
2022-09-15T07:48:03.677Z,16.8
2022-09-15T07:49:05.446Z,16.9
2022-09-15T07:50:07.437Z,17
2022-09-15T07:51:08.734Z,17.2
2022-09-15T07:52:10.410Z,17.2
2022-09-15T07:53:11.321Z,17.3
2022-09-15T07:54:12.491Z,17.2
2022-09-15T07:55:14.331Z,17.2
2022-09-15T07:56:15.377Z,17.1
2022-09-15T07:57:17.373Z,17.1
2022-09-15T07:58:18.372Z,17
2022-09-15T07:59:19.303Z,17
2022-09-15T08:00:20.331Z,17.1
2022-09-15T08:01:21.489Z,17.1
2022-09-15T08:02:22.384Z,17.1
2022-09-15T08:03:23.359Z,17.1
2022-09-15T08:04:25.392Z,16.9
2022-09-15T08:05:26.451Z,16.8
2022-09-15T08:06:27.350Z,16.6
2022-09-15T08:07:28.372Z,16.5
2022-09-15T08:08:29.396Z,16.5
2022-09-15T08:09:30.331Z,16.5
2022-09-15T08:10:31.369Z,16.6
2022-09-15T08:11:32.400Z,16.6
2022-09-15T08:12:33.350Z,16.6
2022-09-15T08:13:34.339Z,16.7
2022-09-15T08:14:35.399Z,16.7
2022-09-15T08:15:36.387Z,16.8
2022-09-15T08:16:37.674Z,16.9
2022-09-15T08:17:39.356Z,16.9
2022-09-15T08:18:41.390Z,16.9
2022-09-15T08:19:43.590Z,16.6
2022-09-15T08:20:45.391Z,16.3
2022-09-15T08:21:46.378Z,16.2
2022-09-15T08:22:47.334Z,16.2
2022-09-15T08:23:49.421Z,16.4
2022-09-15T08:24:51.330Z,16.6
2022-09-15T08:25:52.453Z,16.7
2022-09-15T08:26:53.400Z,16.7
2022-09-15T08:27:54.336Z,16.6
2022-09-15T08:28:55.375Z,16.5
2022-09-15T08:29:56.410Z,16.4
2022-09-15T08:30:57.536Z,16.5
2022-09-15T08:31:58.450Z,16.6
2022-09-15T08:33:00.399Z,16.8
2022-09-15T08:34:01.359Z,17
2022-09-15T08:35:02.374Z,17
2022-09-15T08:36:03.413Z,17
2022-09-15T08:37:04.454Z,16.9
2022-09-15T08:38:05.652Z,16.9
2022-09-15T08:39:07.544Z,16.9
2022-09-15T08:40:08.552Z,16.9
2022-09-15T08:41:10.370Z,17
2022-09-15T08:42:12.370Z,17.2
2022-09-15T08:43:14.351Z,17.2
2022-09-15T08:44:15.411Z,17.2
2022-09-15T08:45:16.431Z,17.4
2022-09-15T08:46:17.433Z,17.5
2022-09-15T08:47:18.314Z,17.5
2022-09-15T08:48:20.333Z,17.5
2022-09-15T08:49:35.734Z,17.6
2022-09-15T08:50:22.433Z,17.7
2022-09-15T08:51:23.343Z,17.8
2022-09-15T08:52:24.319Z,17.9
2022-09-15T08:53:25.371Z,17.9
2022-09-15T08:54:27.403Z,18
2022-09-15T08:55:29.378Z,17.9
2022-09-15T08:56:30.333Z,17.8
2022-09-15T08:57:31.393Z,17.6
2022-09-15T08:58:32.439Z,17.4
2022-09-15T08:59:33.790Z,17.1
2022-09-15T09:00:35.334Z,16.8
2022-09-15T09:01:36.409Z,16.7
2022-09-15T09:02:37.422Z,16.5
2022-09-15T09:03:38.411Z,16.1
2022-09-15T09:04:39.371Z,15.9
2022-09-15T09:05:40.331Z,15.7
2022-09-15T09:06:41.355Z,15.6
2022-09-15T09:07:42.477Z,15.7
2022-09-15T09:08:43.670Z,15.7
2022-09-15T09:09:45.414Z,15.6
2022-09-15T09:10:47.354Z,15.5
2022-09-15T09:11:49.453Z,15.3
2022-09-15T09:12:51.370Z,15.2
2022-09-15T09:13:52.411Z,15.3
2022-09-15T09:14:53.371Z,15.4
2022-09-15T09:15:54.381Z,15.5
2022-09-15T09:16:55.533Z,15.6
2022-09-15T09:17:57.428Z,15.7
2022-09-15T09:18:58.370Z,15.9
2022-09-15T09:19:59.333Z,16.1
2022-09-15T09:21:00.289Z,16.3
2022-09-15T09:22:01.371Z,16.4
2022-09-15T09:23:02.510Z,16.5
2022-09-15T09:24:04.430Z,16.5
2022-09-15T09:25:16.174Z,16.6
2022-09-15T09:26:10.415Z,16.8
2022-09-15T09:27:08.651Z,17
2022-09-15T09:28:10.412Z,17.2
2022-09-15T09:29:11.410Z,17.2
2022-09-15T09:30:12.413Z,17.3
2022-09-15T09:31:13.383Z,17.4
2022-09-15T09:32:16.063Z,17.5
2022-09-15T09:33:15.359Z,17.7
2022-09-15T09:34:16.405Z,17.8
2022-09-15T09:35:17.450Z,17.9
2022-09-15T09:36:18.471Z,17.8
2022-09-15T09:37:19.510Z,17.7
2022-09-15T09:38:20.391Z,17.6
2022-09-15T09:39:22.210Z,17.6
2022-09-15T09:40:23.459Z,17.6
2022-09-15T09:41:24.414Z,17.6
2022-09-15T09:42:25.397Z,17.5
2022-09-15T09:43:27.486Z,17.6
2022-09-15T09:44:29.928Z,17.6
2022-09-15T09:45:31.418Z,17.6
2022-09-15T09:46:32.415Z,17.7
2022-09-15T09:47:33.411Z,17.7
2022-09-15T09:48:35.394Z,17.8
2022-09-15T09:49:37.590Z,17.6
2022-09-15T09:50:39.481Z,17.6
2022-09-15T09:51:41.391Z,17.6
2022-09-15T09:52:42.392Z,17.6
2022-09-15T09:53:43.935Z,17.4
2022-09-15T09:54:45.431Z,17.1
2022-09-15T09:55:46.573Z,16.9
2022-09-15T09:56:47.446Z,16.9
2022-09-15T09:57:48.471Z,17
2022-09-15T09:58:50.434Z,16.9
2022-09-15T09:59:51.415Z,16.8
2022-09-15T10:00:52.411Z,16.6
2022-09-15T10:01:53.646Z,16.5
2022-09-15T10:02:54.516Z,16.5
2022-09-15T10:03:55.431Z,16.5
2022-09-15T10:04:56.490Z,16.7
2022-09-15T10:05:57.600Z,16.8
2022-09-15T10:06:59.390Z,16.9
2022-09-15T10:08:00.409Z,17.1
2022-09-15T10:09:01.392Z,17.2
2022-09-15T10:10:02.455Z,17.3
2022-09-15T10:11:03.488Z,17.3
2022-09-15T10:12:04.432Z,17.3
2022-09-15T10:13:05.411Z,17.3
2022-09-15T10:14:06.419Z,17.3
2022-09-15T10:15:07.475Z,17.4
2022-09-15T10:16:08.431Z,17.5
2022-09-15T10:17:09.490Z,17.5
2022-09-15T10:18:10.345Z,17.5
2022-09-15T10:19:11.419Z,17.4
2022-09-15T10:20:12.431Z,17.4
2022-09-15T10:21:13.470Z,17.4
2022-09-15T10:22:14.442Z,17.3
2022-09-15T10:23:15.631Z,17.2
2022-09-15T10:24:18.144Z,17.3
2022-09-15T10:25:18.490Z,17.3
2022-09-15T10:26:20.515Z,17.3
2022-09-15T10:27:21.414Z,17.4
2022-09-15T10:28:23.422Z,17.4
2022-09-15T10:29:24.478Z,17.3
2022-09-15T10:30:25.470Z,17
2022-09-15T10:31:27.522Z,16.6
2022-09-15T10:32:28.611Z,16.4
2022-09-15T10:33:30.440Z,16.5
2022-09-15T10:34:31.459Z,16.4
2022-09-15T10:35:32.621Z,16.1
2022-09-15T10:36:34.430Z,15.9
2022-09-15T10:37:36.427Z,15.8
2022-09-15T10:38:38.392Z,15.7
2022-09-15T10:39:39.415Z,15.7
2022-09-15T10:40:40.470Z,15.6
2022-09-15T10:41:41.479Z,15.5
2022-09-15T10:42:42.434Z,15.6
2022-09-15T10:43:43.471Z,15.7
2022-09-15T10:44:44.576Z,15.8
2022-09-15T10:45:46.581Z,15.9
2022-09-15T10:46:48.671Z,16
2022-09-15T10:47:50.443Z,16.2
2022-09-15T10:48:52.593Z,16.4
2022-09-15T10:49:54.455Z,16.4
2022-09-15T10:50:55.650Z,16.4
2022-09-15T10:51:57.413Z,16.3
2022-09-15T10:52:58.514Z,16.4
2022-09-15T10:53:59.691Z,16.4
2022-09-15T10:55:00.401Z,16.5
2022-09-15T10:56:01.610Z,16.7
2022-09-15T10:57:03.476Z,16.8
2022-09-15T10:58:04.651Z,16.9
2022-09-15T10:59:06.447Z,16.9
2022-09-15T11:00:07.459Z,17.1
2022-09-15T11:01:08.565Z,17.3
2022-09-15T11:02:10.531Z,17.4
2022-09-15T11:03:12.487Z,17.5
2022-09-15T11:04:13.531Z,17.7
2022-09-15T11:05:16.865Z,17.9
2022-09-15T11:06:15.533Z,18.1
2022-09-15T11:07:16.533Z,18.3
2022-09-15T11:08:17.700Z,18.5
2022-09-15T11:09:19.436Z,18.6
2022-09-15T11:10:21.498Z,18.7
2022-09-15T11:11:23.531Z,18.6
2022-09-15T11:12:28.478Z,18.4
2022-09-15T11:13:25.466Z,18.3
2022-09-15T11:14:26.450Z,18.3
2022-09-15T11:15:27.473Z,18.1
2022-09-15T11:16:29.591Z,18.1
2022-09-15T11:17:30.485Z,18
2022-09-15T11:18:31.434Z,18.1
2022-09-15T11:19:32.404Z,18
2022-09-15T11:20:33.831Z,18.1
2022-09-15T11:21:35.496Z,18
2022-09-15T11:22:36.430Z,18.1
2022-09-15T11:23:37.394Z,18.2
2022-09-15T11:24:38.471Z,18.3
2022-09-15T11:25:40.471Z,18.4
2022-09-15T11:26:41.521Z,18.6
2022-09-15T11:27:42.631Z,18.7
2022-09-15T11:28:43.451Z,18.7
2022-09-15T11:29:44.851Z,18.7
2022-09-15T11:30:47.834Z,18.8
2022-09-15T11:31:47.599Z,18.7
2022-09-15T11:32:48.430Z,18.2
2022-09-15T11:33:49.472Z,17.9
2022-09-15T11:34:50.430Z,17.7
2022-09-15T11:35:51.612Z,17.6
2022-09-15T11:36:53.429Z,17.5
2022-09-15T11:37:54.446Z,17.5
2022-09-15T11:38:55.466Z,17.5
2022-09-15T11:39:56.777Z,17.5
2022-09-15T11:40:58.513Z,17.6
2022-09-15T11:41:59.532Z,17.7
2022-09-15T11:43:00.515Z,17.8
2022-09-15T11:44:01.410Z,17.8
2022-09-15T11:45:02.511Z,18
2022-09-15T11:46:03.491Z,18
2022-09-15T11:47:04.859Z,18
2022-09-15T11:48:06.450Z,18
2022-09-15T11:49:07.490Z,18.1
2022-09-15T11:50:08.583Z,18.1
2022-09-15T11:51:09.632Z,18.2
2022-09-15T11:52:11.838Z,18.4
2022-09-15T11:53:13.590Z,18.3
2022-09-15T11:54:15.485Z,18.4
2022-09-15T11:55:17.812Z,18.4
2022-09-15T11:56:19.710Z,18
2022-09-15T11:57:21.618Z,17.7
2022-09-15T11:58:23.575Z,17.4
2022-09-15T11:59:25.691Z,17.3
2022-09-15T12:00:27.490Z,17.3
2022-09-15T12:01:29.892Z,17.4
2022-09-15T12:02:31.627Z,17.6
2022-09-15T12:03:33.600Z,17.9
2022-09-15T12:04:35.462Z,18
2022-09-15T12:05:37.516Z,17.9
2022-09-15T12:06:40.996Z,17.9
2022-09-15T12:07:39.434Z,17.8
2022-09-15T12:08:40.491Z,17.9
2022-09-15T12:09:41.483Z,17.8
2022-09-15T12:10:42.530Z,17.7
2022-09-15T12:11:44.810Z,17.7
2022-09-15T12:12:46.490Z,17.5
2022-09-15T12:13:47.598Z,17.5
2022-09-15T12:14:48.478Z,17.5
2022-09-15T12:15:49.525Z,17.6
2022-09-15T12:16:50.490Z,17.7
2022-09-15T12:17:51.513Z,17.8
2022-09-15T12:18:52.614Z,17.9
2022-09-15T12:19:53.480Z,18
2022-09-15T12:20:54.711Z,18
2022-09-15T12:21:56.511Z,18
2022-09-15T12:22:58.438Z,18
2022-09-15T12:23:59.614Z,18.1
2022-09-15T12:25:01.458Z,18
2022-09-15T12:26:02.754Z,18
2022-09-15T12:27:04.553Z,17.9
2022-09-15T12:28:05.448Z,17.8
2022-09-15T12:29:06.554Z,17.8
2022-09-15T12:30:08.631Z,17.8
2022-09-15T12:31:10.562Z,17.5
2022-09-15T12:32:11.475Z,17.4
2022-09-15T12:33:12.477Z,17.4
2022-09-15T12:34:13.531Z,17.4
2022-09-15T12:35:14.559Z,17.1
2022-09-15T12:36:15.453Z,17
2022-09-15T12:37:16.554Z,16.9
2022-09-15T12:38:17.438Z,17
2022-09-15T12:39:18.491Z,17.1
2022-09-15T12:40:20.599Z,17.2
2022-09-15T12:41:21.552Z,17.3
2022-09-15T12:42:23.517Z,17.3
2022-09-15T12:43:25.593Z,17.3
2022-09-15T12:44:26.596Z,17.5
2022-09-15T12:45:27.530Z,17.7
2022-09-15T12:46:28.563Z,17.8
2022-09-15T12:47:30.512Z,17.8
2022-09-15T12:48:31.532Z,17.9
2022-09-15T12:49:32.512Z,17.9
2022-09-15T12:50:33.536Z,17.9
2022-09-15T12:51:34.527Z,17.9
2022-09-15T12:52:35.514Z,18
2022-09-15T12:53:36.513Z,18.1
2022-09-15T12:54:37.508Z,18
2022-09-15T12:55:38.514Z,18.1
2022-09-15T12:56:39.576Z,18.2
2022-09-15T12:57:40.506Z,18.1
2022-09-15T12:58:41.498Z,18.1
2022-09-15T12:59:42.747Z,18.1
2022-09-15T13:01:07.093Z,17.9
2022-09-15T13:01:46.625Z,17.7
2022-09-15T13:02:47.593Z,17.6
2022-09-15T13:03:48.514Z,17.7
2022-09-15T13:04:49.605Z,17.7
2022-09-15T13:05:51.496Z,17.8
2022-09-15T13:06:52.496Z,17.8
2022-09-15T13:07:53.644Z,17.7
2022-09-15T13:08:54.505Z,17.6
2022-09-15T13:09:55.523Z,17.6
2022-09-15T13:10:56.525Z,17.4
2022-09-15T13:11:57.472Z,17.3
2022-09-15T13:12:58.515Z,17.4
2022-09-15T13:13:59.495Z,17.3
2022-09-15T13:15:00.599Z,17.1
2022-09-15T13:16:02.606Z,16.9
2022-09-15T13:17:03.483Z,16.8
2022-09-15T13:18:04.664Z,16.6
2022-09-15T13:19:05.537Z,16.6
2022-09-15T13:20:06.725Z,16.6
2022-09-15T13:21:08.494Z,16.6
2022-09-15T13:22:09.553Z,16.7
2022-09-15T13:23:10.564Z,16.8
2022-09-15T13:24:11.631Z,17
2022-09-15T13:25:12.883Z,17
2022-09-15T13:26:14.532Z,17.1
2022-09-15T13:27:15.673Z,17.3
2022-09-15T13:28:17.846Z,17.5
2022-09-15T13:29:19.753Z,17.7
2022-09-15T13:30:21.648Z,17.9
2022-09-15T13:31:22.564Z,18
2022-09-15T13:32:23.585Z,18.2
2022-09-15T13:33:24.992Z,18.4
2022-09-15T13:35:27.545Z,18.3
2022-09-15T13:38:02.932Z,18.1
2022-09-15T13:38:32.369Z,17.5
2022-09-15T13:39:32.554Z,17.2
2022-09-15T13:40:33.616Z,17.1
2022-09-15T13:41:34.556Z,17
2022-09-15T13:42:35.573Z,16.9
2022-09-15T13:43:40.739Z,16.7
2022-09-15T13:44:37.509Z,16.7
2022-09-15T13:45:38.582Z,16.8
2022-09-15T13:46:39.498Z,16.7
2022-09-15T13:47:40.554Z,16.5
2022-09-15T13:48:41.532Z,16.4
2022-09-15T13:49:42.541Z,16.4
2022-09-15T13:50:44.699Z,16.4
2022-09-15T13:52:01.676Z,16.5
2022-09-15T13:53:03.839Z,16.6
2022-09-15T13:54:05.496Z,16.6
2022-09-15T13:55:07.039Z,16.5
2022-09-15T13:56:08.493Z,16.5
2022-09-15T13:57:10.565Z,16.6
2022-09-15T13:59:15.590Z,16.6
2022-09-15T14:00:19.622Z,16.7
2022-09-15T14:01:16.568Z,16.8
2022-09-15T14:02:17.624Z,16.8
2022-09-15T14:03:19.476Z,16.9
2022-09-15T14:04:20.510Z,16.9
2022-09-15T14:05:22.496Z,16.9